Time;durP1;ratioP1;P1;durP2;ratioP2;P2;SDS_P1;SDS_P2;PMS_P1;PMS_P2;Temp;Humidity;BMP_temperature;BMP_pressure;BME280_temperature;BME280_humidity;BME280_pressure;Samples;Min_cycle;Max_cycle;Signal;HPM_P1;HPM_P2
2020/12/16 00:01:17;;;;;;;26.40;18.80;;;;;;;3.89;70.41;100392.30;1777576;79;21107;-41
2020/12/16 00:03:46;;;;;;;34.13;19.52;;;;;;;3.91;70.35;100382.89;1788058;79;23499;-41
2020/12/16 00:06:15;;;;;;;27.85;17.67;;;;;;;3.93;70.25;100386.06;1751547;80;21295;-41
2020/12/16 00:08:44;;;;;;;33.73;19.50;;;;;;;3.90;70.32;100399.27;1790827;79;21008;-41
2020/12/16 00:11:12;;;;;;;26.93;19.05;;;;;;;3.87;70.31;100397.95;1780069;79;21628;-40
2020/12/16 00:13:40;;;;;;;29.87;18.23;;;;;;;3.87;70.39;100401.97;1784757;79;21122;-41
2020/12/16 00:16:08;;;;;;;34.73;19.60;;;;;;;3.84;70.40;100401.22;1759881;80;21875;-41
2020/12/16 00:18:37;;;;;;;33.33;20.20;;;;;;;3.82;70.39;100402.07;1757818;79;21563;-40
2020/12/16 00:21:05;;;;;;;28.85;18.80;;;;;;;3.77;70.39;100402.67;1773682;79;21186;-40
2020/12/16 00:23:34;;;;;;;23.98;17.65;;;;;;;3.74;70.38;100398.67;1808014;78;21000;-40
2020/12/16 00:26:02;;;;;;;23.50;17.42;;;;;;;3.79;70.45;100396.46;1786417;79;21229;-41
2020/12/16 00:28:30;;;;;;;25.75;18.20;;;;;;;3.82;70.40;100395.91;1800147;79;21364;-40
2020/12/16 00:30:59;;;;;;;26.60;18.15;;;;;;;3.81;70.39;100401.81;1791221;79;21615;-41
2020/12/16 00:33:27;;;;;;;29.23;18.62;;;;;;;3.78;70.48;100398.34;1771399;79;21296;-41
2020/12/16 00:35:57;;;;;;;;;;;;;;;3.80;70.55;100394.84;1779916;79;21178;-40
2020/12/16 00:38:25;;;;;;;47.55;19.37;;;;;;;3.81;70.47;100396.44;1771715;79;20291;-40
2020/12/16 00:40:54;;;;;;;55.15;20.15;;;;;;;3.65;70.67;100395.58;1760170;79;21392;-40
2020/12/16 00:43:22;;;;;;;29.00;19.27;;;;;;;3.61;70.76;100398.05;1776244;78;21183;-40
2020/12/16 00:45:50;;;;;;;27.58;19.77;;;;;;;3.64;70.74;100392.09;1795877;78;21118;-41
2020/12/16 00:48:19;;;;;;;28.73;19.17;;;;;;;3.71;70.76;100387.19;1801044;78;21111;-41
2020/12/16 00:50:48;;;;;;;31.82;21.15;;;;;;;3.77;70.74;100386.59;1784361;78;21601;-41
2020/12/16 00:53:16;;;;;;;39.33;21.50;;;;;;;3.78;70.72;100380.11;1801806;78;21435;-41
2020/12/16 00:55:46;;;;;;;34.90;19.55;;;;;;;3.77;70.75;100387.38;1761423;80;21071;-40
2020/12/16 00:58:16;;;;;;;41.85;20.15;;;;;;;3.77;70.66;100384.70;1801666;78;21015;-40
2020/12/16 01:00:46;;;;;;;47.60;19.65;;;;;;;3.75;70.73;100377.48;1781386;79;21208;-41
2020/12/16 01:03:15;;;;;;;37.40;20.10;;;;;;;3.72;70.71;100379.41;1757782;81;21004;-41
2020/12/16 01:05:43;;;;;;;30.12;18.87;;;;;;;3.69;70.75;100381.30;1756610;79;21242;-41
2020/12/16 01:08:12;;;;;;;29.67;20.00;;;;;;;3.70;70.76;100386.93;1814590;78;21020;-41
2020/12/16 01:10:42;;;;;;;;;;;;;;;3.76;70.66;100378.27;1780560;79;21161;-40
2020/12/16 01:13:11;;;;;;;27.98;19.02;;;;;;;3.76;70.68;100369.69;1816943;78;20264;-41
2020/12/16 01:15:40;;;;;;;31.50;20.45;;;;;;;3.65;70.93;100365.55;1808807;78;21610;-40
2020/12/16 01:18:09;;;;;;;38.10;20.90;;;;;;;3.64;70.92;100359.92;1807847;78;21194;-41
2020/12/16 01:20:39;;;;;;;32.65;20.17;;;;;;;3.62;70.96;100360.77;1795912;78;21043;-40
2020/12/16 01:23:19;;;;;;;27.67;18.65;;;;;;;3.60;71.03;100354.88;1829408;78;22701;-40
2020/12/16 01:25:48;;;;;;;31.77;20.92;;;;;;;3.55;71.01;100355.48;1790584;78;21045;-40
2020/12/16 01:28:17;;;;;;;30.97;20.85;;;;;;;3.57;70.98;100351.45;1806560;78;21574;-40
2020/12/16 01:30:47;;;;;;;29.37;20.12;;;;;;;3.55;71.10;100356.30;1784961;78;20992;-40
2020/12/16 01:33:16;;;;;;;34.88;21.40;;;;;;;3.54;71.19;100357.38;1780842;78;21024;-40
2020/12/16 01:35:45;;;;;;;35.87;22.03;;;;;;;3.55;71.19;100348.79;1784730;78;21008;-40
2020/12/16 01:38:14;;;;;;;46.88;22.42;;;;;;;3.51;71.12;100348.58;1785811;78;21374;-40
2020/12/16 01:40:44;;;;;;;38.23;21.95;;;;;;;3.43;71.29;100343.87;1791498;78;21195;-40
2020/12/16 01:43:14;;;;;;;30.82;19.07;;;;;;;3.44;71.32;100337.39;1803854;78;21052;-40
2020/12/16 01:45:44;;;;;;;31.62;19.15;;;;;;;3.49;71.23;100342.69;1787905;78;21012;-40
2020/12/16 01:48:13;;;;;;;27.95;18.42;;;;;;;3.48;71.24;100339.24;1788008;78;20996;-40
2020/12/16 01:50:41;;;;;;;31.60;19.07;;;;;;;3.44;71.33;100337.39;1780073;78;21868;-40
2020/12/16 01:53:11;;;;;;;29.07;19.15;;;;;;;3.41;71.36;100333.96;1781391;78;21433;-40
2020/12/16 01:55:41;;;;;;;28.98;18.90;;;;;;;3.37;71.51;100338.30;1811435;78;21180;-40
2020/12/16 01:58:12;;;;;;;26.35;17.57;;;;;;;3.27;71.61;100335.75;1800906;78;21189;-40
2020/12/16 02:00:40;;;;;;;23.92;16.55;;;;;;;3.24;71.78;100335.80;1806857;78;21142;-40
2020/12/16 02:03:10;;;;;;;22.17;16.52;;;;;;;3.29;71.80;100332.25;1809184;78;21135;-40
2020/12/16 02:05:56;;;;;;;26.00;19.32;;;;;;;3.37;71.84;100330.27;1786923;78;27834;-40
2020/12/16 02:08:27;;;;;;;24.80;18.37;;;;;;;3.69;71.04;100324.99;1770189;80;21102;-40
2020/12/16 02:10:57;;;;;;;30.00;18.27;;;;;;;3.91;70.32;100315.83;1777716;80;22028;-40
2020/12/16 02:13:26;;;;;;;26.93;18.93;;;;;;;3.79;70.49;100320.02;1743516;80;21617;-40
2020/12/16 02:15:56;;;;;;;24.72;17.85;;;;;;;3.68;70.61;100327.41;1776109;80;21023;-40
2020/12/16 02:18:27;;;;;;;25.80;18.55;;;;;;;3.63;70.73;100320.78;1768122;80;21617;-40
2020/12/16 02:20:59;;;;;;;33.28;19.00;;;;;;;3.66;70.84;100320.22;1750013;80;21019;-40
2020/12/16 02:23:29;;;;;;;30.02;19.17;;;;;;;3.66;70.86;100326.92;1751992;80;21204;-40
2020/12/16 02:25:59;;;;;;;30.85;19.10;;;;;;;3.61;70.94;100322.97;1777499;80;21027;-40
2020/12/16 02:28:27;;;;;;;41.08;19.70;;;;;;;3.60;71.08;100325.39;1748337;80;21032;-40
2020/12/16 02:30:57;;;;;;;35.20;19.63;;;;;;;3.58;71.08;100324.91;1758210;80;21146;-40
2020/12/16 02:33:40;;;;;;;37.48;20.57;;;;;;;3.57;71.11;100318.48;1824815;78;22801;-40
2020/12/16 02:36:10;;;;;;;33.25;20.88;;;;;;;3.55;71.09;100325.45;1781292;79;21044;-40
2020/12/16 02:39:01;;;;;;;32.05;20.02;;;;;;;3.60;71.10;100328.07;1856117;76;22807;-40
2020/12/16 02:41:31;;;;;;;;;;;;;;;3.57;71.24;100325.98;1830214;77;21019;-40
2020/12/16 02:44:00;;;;;;;38.53;21.65;;;;;;;3.57;71.24;100323.30;1829509;77;21135;-40
2020/12/16 02:46:32;;;;;;;35.03;20.75;;;;;;;3.44;71.55;100321.31;1829589;77;21024;-40
2020/12/16 02:49:02;;;;;;;41.95;23.10;;;;;;;3.42;71.55;100316.27;1838697;77;21003;-40
2020/12/16 02:51:32;;;;;;;30.80;19.37;;;;;;;3.39;71.56;100314.14;1827764;77;21004;-40
2020/12/16 02:54:04;;;;;;;26.80;19.23;;;;;;;3.33;71.61;100315.85;1834778;77;21004;-40
2020/12/16 02:56:50;;;;;;;25.52;17.85;;;;;;;3.39;71.69;100316.81;1814447;77;22862;-40
2020/12/16 02:59:21;;;;;;;29.87;19.57;;;;;;;3.37;71.73;100320.89;1791084;79;21573;-40
2020/12/16 03:01:52;;;;;;;31.50;20.48;;;;;;;3.37;71.81;100316.87;1747671;81;21387;-40
2020/12/16 03:04:31;;;;;;;31.68;19.87;;;;;;;3.38;71.80;100316.59;1774370;80;26376;-40
2020/12/16 03:07:01;;;;;;;;;;;;;;;3.38;71.76;100317.12;1780509;80;20940;-40
2020/12/16 03:09:31;;;;;;;33.23;21.48;;;;;;;3.33;71.77;100323.89;1768225;80;20171;-40
2020/12/16 03:11:59;;;;;;;28.55;19.50;;;;;;;3.30;71.75;100328.47;1753963;80;21917;-40
2020/12/16 03:14:43;;;;;;;29.52;19.90;;;;;;;3.35;71.87;100328.41;1809086;78;22812;-40
2020/12/16 03:17:12;;;;;;;31.87;21.02;;;;;;;3.31;71.97;100332.75;1777703;79;21601;-40
2020/12/16 03:19:42;;;;;;;;;;;;;;;3.31;71.93;100333.55;1789720;79;21365;-40
2020/12/16 03:22:11;;;;;;;31.42;19.27;;;;;;;3.28;72.01;100328.78;1793837;79;20190;-40
2020/12/16 03:24:53;;;;;;;31.97;21.50;;;;;;;3.24;72.38;100335.00;1885285;75;22726;-40
2020/12/16 03:27:40;;;;;;;34.08;22.07;;;;;;;3.26;72.30;100335.49;1845073;76;20993;-40
2020/12/16 03:30:10;;;;;;;32.00;19.98;;;;;;;3.35;72.03;100340.47;1832949;77;21175;-40
2020/12/16 03:32:50;;;;;;;34.30;21.60;;;;;;;3.40;71.87;100340.41;1815253;77;22704;-40
2020/12/16 03:35:21;;;;;;;33.50;21.97;;;;;;;3.36;71.93;100338.84;1797579;78;20963;-40
2020/12/16 03:37:52;;;;;;;35.35;22.32;;;;;;;3.40;71.93;100336.38;1794410;79;21207;-40
2020/12/16 03:40:22;;;;;;;35.98;21.48;;;;;;;3.39;71.71;100338.27;1803543;79;21012;-40
2020/12/16 03:42:52;;;;;;;39.35;22.77;;;;;;;3.37;71.84;100337.77;1748736;81;21057;-40
2020/12/16 03:45:22;;;;;;;33.30;22.35;;;;;;;3.37;71.93;100336.97;1744565;80;20973;-40
2020/12/16 03:47:50;;;;;;;34.30;21.62;;;;;;;3.40;71.77;100336.38;1743975;81;21573;-40
2020/12/16 03:50:20;;;;;;;35.17;22.32;;;;;;;3.44;71.74;100332.84;1741637;81;22102;-40
2020/12/16 03:52:50;;;;;;;31.52;20.32;;;;;;;3.48;71.60;100334.42;1719251;83;21028;-40
2020/12/16 03:55:30;;;;;;;37.78;21.97;;;;;;;3.47;71.52;100328.25;1809663;78;22654;-40
2020/12/16 03:58:09;;;;;;;33.35;20.88;;;;;;;3.43;71.62;100325.10;1715366;83;21214;-40
2020/12/16 04:00:39;;;;;;;;;;;;;;;3.43;71.63;100325.10;1798954;79;21165;-40
2020/12/16 04:03:09;;;;;;;31.45;20.08;;;;;;;3.42;71.72;100326.18;1780760;79;20206;-40
2020/12/16 04:05:59;;;;;;;27.35;19.82;;;;;;;3.45;71.68;100326.94;1835445;77;22855;-40
2020/12/16 04:08:28;;;;;;;34.33;21.27;;;;;;;3.45;71.56;100331.75;1816426;79;21023;-40
2020/12/16 04:11:18;;;;;;;35.00;20.50;;;;;;;3.48;71.62;100323.70;1828206;78;22679;-40
2020/12/16 04:13:48;;;;;;;30.27;20.50;;;;;;;3.39;71.65;100330.22;1802352;79;20996;-42
2020/12/16 04:16:21;;;;;;;34.13;19.82;;;;;;;3.36;71.59;100330.00;1786716;79;21445;-40
2020/12/16 04:18:50;;;;;;;33.35;20.43;;;;;;;3.33;71.69;100329.25;1804092;77;21036;-40
2020/12/16 04:21:20;;;;;;;29.25;19.98;;;;;;;3.27;71.84;100325.83;1798438;77;21004;-40
2020/12/16 04:23:48;;;;;;;28.95;20.25;;;;;;;3.28;71.87;100323.95;1805015;79;21020;-40
2020/12/16 04:26:28;;;;;;;28.47;19.70;;;;;;;3.36;71.74;100324.64;1799652;79;21285;-40
2020/12/16 04:28:58;;;;;;;33.98;21.30;;;;;;;3.37;71.70;100328.92;1776617;79;21371;-40
2020/12/16 04:31:26;;;;;;;29.87;19.20;;;;;;;3.31;71.72;100331.41;1777031;79;21024;-40
2020/12/16 04:33:55;;;;;;;31.37;19.40;;;;;;;3.28;71.82;100335.48;1777031;79;20910;-40
2020/12/16 04:36:25;;;;;;;24.87;15.50;;;;;;;3.27;71.85;100333.08;1792014;79;21091;-40
2020/12/16 04:38:53;;;;;;;28.40;20.02;;;;;;;3.21;71.95;100336.35;1793356;79;21534;-40
2020/12/16 04:41:22;;;;;;;28.27;20.57;;;;;;;3.21;72.01;100343.59;1794777;79;21197;-40
2020/12/16 04:43:52;;;;;;;26.05;18.70;;;;;;;3.23;71.91;100339.55;1805047;79;21170;-40
2020/12/16 04:46:22;;;;;;;32.55;20.95;;;;;;;3.24;72.03;100347.05;1807172;79;21130;-40
2020/12/16 04:48:50;;;;;;;31.33;20.08;;;;;;;3.23;72.12;100337.41;1745910;79;21154;-40
2020/12/16 04:51:24;;;;;;;31.57;20.52;;;;;;;3.19;72.21;100343.09;1783640;79;21126;-40
2020/12/16 04:53:54;;;;;;;29.50;19.40;;;;;;;3.17;72.19;100336.67;1796110;79;21191;-40
2020/12/16 04:56:24;;;;;;;30.10;19.10;;;;;;;3.11;72.28;100332.45;1787582;79;21166;-40
2020/12/16 04:59:10;;;;;;;29.00;22.65;;;;;;;3.14;72.49;100331.09;1765762;78;27903;-40
2020/12/16 05:01:41;;;;;;;30.57;20.08;;;;;;;3.35;72.16;100329.74;1761223;80;21027;-40
2020/12/16 05:04:11;;;;;;;28.30;19.07;;;;;;;3.62;71.36;100339.31;1746065;82;21376;-40
2020/12/16 05:06:44;;;;;;;28.67;19.23;;;;;;;3.56;71.45;100336.98;1750963;80;21043;-40
2020/12/16 05:09:16;;;;;;;29.07;19.10;;;;;;;3.47;71.33;100343.00;1761436;80;20995;-40
2020/12/16 05:11:52;;;;;;;30.05;19.73;;;;;;;3.39;71.42;100338.80;1772261;80;21052;-40
2020/12/16 05:14:24;;;;;;;26.35;19.37;;;;;;;3.30;71.58;100333.83;1711525;83;21142;-40
2020/12/16 05:17:05;;;;;;;27.20;18.32;;;;;;;3.26;71.70;100337.63;1707856;83;21576;-40
2020/12/16 05:19:44;;;;;;;27.52;20.12;;;;;;;3.31;71.68;100332.75;1700395;83;21015;-40
2020/12/16 05:22:28;;;;;;;25.68;17.70;;;;;;;3.31;71.73;100336.77;1703562;83;21036;-40
2020/12/16 05:24:58;;;;;;;26.23;18.17;;;;;;;3.25;71.67;100332.55;1706287;83;21573;-40
2020/12/16 05:27:28;;;;;;;;;;;;;;;3.18;71.84;100329.44;1699778;83;21158;-40
2020/12/16 05:30:00;;;;;;;26.02;16.62;;;;;;;3.10;71.93;100333.53;1698400;83;22163;-40
2020/12/16 05:32:31;;;;;;;26.00;19.10;;;;;;;2.94;72.38;100323.55;1711177;83;21628;-40
2020/12/16 05:35:00;;;;;;;24.40;17.42;;;;;;;2.95;72.50;100325.70;1687929;83;21719;-40
2020/12/16 05:37:35;;;;;;;23.38;17.80;;;;;;;2.98;72.46;100329.94;1698397;83;21213;-40
2020/12/16 05:40:14;;;;;;;24.92;17.40;;;;;;;3.03;72.25;100324.52;1714826;83;21170;-40
2020/12/16 05:42:49;;;;;;;24.27;17.27;;;;;;;3.02;72.29;100328.27;1711384;83;21208;-40
2020/12/16 05:45:20;;;;;;;23.15;17.42;;;;;;;3.00;72.35;100332.34;1718117;83;21145;-40
2020/12/16 05:48:10;;;;;;;24.87;17.17;;;;;;;2.97;72.54;100335.02;1723303;83;21031;-40
2020/12/16 05:50:52;;;;;;;24.25;16.95;;;;;;;3.00;72.50;100338.47;1709763;83;21158;-40
2020/12/16 05:53:26;;;;;;;24.32;17.17;;;;;;;2.96;72.46;100339.32;1716373;83;21170;-40
2020/12/16 05:56:00;;;;;;;27.22;18.10;;;;;;;2.93;72.55;100343.38;1706206;83;21389;-40
2020/12/16 05:58:30;;;;;;;22.42;16.80;;;;;;;2.97;72.38;100344.41;1701987;82;21194;-40
2020/12/16 06:01:04;;;;;;;23.70;16.87;;;;;;;3.05;72.28;100341.09;1698652;83;21091;-40
2020/12/16 06:03:35;;;;;;;24.27;17.40;;;;;;;3.10;72.11;100344.25;1686225;85;21083;-40
2020/12/16 06:06:06;;;;;;;;;;;;;;;3.07;72.10;100344.83;1707000;83;21600;-40
2020/12/16 06:08:39;;;;;;;22.10;16.27;;;;;;;3.04;72.17;100346.21;1702839;83;22258;-40
2020/12/16 06:11:09;;;;;;;26.05;18.35;;;;;;;2.93;72.44;100346.06;1705660;83;21059;-40
2020/12/16 06:13:38;;;;;;;19.55;14.15;;;;;;;2.90;72.35;100347.98;1695489;84;21743;-40
2020/12/16 06:16:09;;;;;;;27.82;18.27;;;;;;;2.87;72.48;100341.03;1663929;86;21215;-40
2020/12/16 06:18:44;;;;;;;24.35;17.73;;;;;;;2.93;72.45;100344.72;1694504;84;21148;-40
2020/12/16 06:21:13;;;;;;;23.70;17.48;;;;;;;3.03;72.29;100351.30;1718869;81;22416;-40
2020/12/16 06:23:43;;;;;;;20.30;13.83;;;;;;;2.78;72.18;100299.36;1670228;85;21923;-40
2020/12/16 06:26:17;;;;;;;24.87;17.82;;;;;;;3.13;72.10;100354.95;1710690;83;21044;-40
2020/12/16 06:28:45;;;;;;;23.50;16.32;;;;;;;3.14;72.00;100356.55;1686747;83;21151;-40
2020/12/16 06:31:29;;;;;;;24.77;17.32;;;;;;;3.14;72.11;100355.21;1699280;83;21157;-40
2020/12/16 06:34:04;;;;;;;23.77;16.93;;;;;;;3.15;71.98;100356.24;1710505;83;21585;-40
2020/12/16 06:36:42;;;;;;;26.40;17.48;;;;;;;3.14;71.87;100357.35;1700454;83;21067;-41
2020/12/16 06:39:23;;;;;;;22.45;16.80;;;;;;;3.20;71.82;100359.41;1707908;83;21055;-40
2020/12/16 06:41:59;;;;;;;24.30;17.73;;;;;;;3.28;71.65;100359.59;1700046;83;21170;-40
2020/12/16 06:44:28;;;;;;;23.12;16.27;;;;;;;3.31;71.53;100361.69;1707115;83;21138;-40
2020/12/16 06:46:57;;;;;;;21.93;15.40;;;;;;;3.31;71.45;100364.38;1703106;83;21652;-40
2020/12/16 06:49:31;;;;;;;22.32;15.45;;;;;;;3.29;71.06;100365.75;1716680;83;21057;-40
2020/12/16 06:52:06;;;;;;;21.80;16.32;;;;;;;3.27;71.22;100370.59;1695269;84;21764;-40
2020/12/16 06:54:41;;;;;;;23.65;15.72;;;;;;;3.27;71.31;100371.39;1702510;83;21238;-40
2020/12/16 06:57:20;;;;;;;26.97;17.40;;;;;;;3.25;71.22;100372.74;1708282;83;21166;-40
2020/12/16 06:59:57;;;;;;;24.77;16.60;;;;;;;3.31;71.16;100364.91;1692029;83;21606;-40
2020/12/16 07:02:35;;;;;;;22.25;16.50;;;;;;;3.37;71.13;100367.79;1747883;81;21850;-40
2020/12/16 07:05:37;;;;;;;23.25;16.37;;;;;;;3.36;71.13;100369.67;1758873;79;21048;-40
2020/12/16 07:08:05;;;;;;;22.95;15.35;;;;;;;3.35;71.05;100380.66;1753080;81;21704;-41
2020/12/16 07:10:40;;;;;;;22.40;15.60;;;;;;;3.34;71.19;100375.08;1752124;81;21169;-41
2020/12/16 07:13:28;;;;;;;20.80;14.50;;;;;;;3.33;70.82;100376.16;1742218;81;21194;-41
2020/12/16 07:16:07;;;;;;;20.25;14.53;;;;;;;3.25;70.92;100380.78;1747977;81;21116;-41
2020/12/16 07:18:45;;;;;;;20.20;13.95;;;;;;;3.18;71.16;100372.31;1754483;79;21167;-41
2020/12/16 07:21:17;;;;;;;20.55;14.05;;;;;;;3.22;71.06;100371.98;1691106;82;21174;-40
2020/12/16 07:23:59;;;;;;;19.67;14.47;;;;;;;3.28;70.95;100378.89;1674899;85;21084;-41
2020/12/16 07:26:42;;;;;;;20.48;14.23;;;;;;;3.30;70.89;100378.05;1672190;85;21521;-40
2020/12/16 07:29:36;;;;;;;19.00;13.83;;;;;;;3.31;70.80;100382.33;1670970;85;21459;-40
2020/12/16 07:32:12;;;;;;;18.20;12.85;;;;;;;3.30;70.91;100381.53;1669858;85;21207;-40
2020/12/16 07:34:57;;;;;;;16.37;12.33;;;;;;;3.28;70.98;100386.39;1694604;84;21606;-40
2020/12/16 07:37:28;;;;;;;17.60;12.35;;;;;;;3.27;70.80;100386.67;1672559;83;21191;-40
2020/12/16 07:40:00;;;;;;;19.10;12.07;;;;;;;3.27;70.79;100386.67;1668603;85;21248;-40
2020/12/16 07:42:31;;;;;;;16.12;12.03;;;;;;;3.33;70.60;100386.88;1664962;85;21147;-41
2020/12/16 07:45:02;;;;;;;15.85;11.43;;;;;;;3.41;70.42;100383.55;1675499;85;21013;-40
2020/12/16 07:47:31;;;;;;;16.65;11.25;;;;;;;3.44;70.32;100381.09;1669406;85;21480;-41
2020/12/16 07:49:59;;;;;;;15.05;11.05;;;;;;;3.40;70.24;100385.97;1655618;85;21158;-40
2020/12/16 07:52:29;;;;;;;15.03;10.63;;;;;;;3.36;70.31;100384.95;1697636;84;21213;-40
2020/12/16 07:54:57;;;;;;;15.18;10.38;;;;;;;3.34;70.32;100389.25;1667896;85;21238;-41
2020/12/16 07:57:33;;;;;;;16.40;10.15;;;;;;;3.33;70.49;100385.53;1665511;84;21150;-40
2020/12/16 08:00:04;;;;;;;12.60;9.58;;;;;;;3.34;70.42;100383.89;1665499;85;21767;-41
2020/12/16 08:02:46;;;;;;;13.68;9.65;;;;;;;3.29;70.25;100388.53;1660096;85;21111;-41
2020/12/16 08:05:15;;;;;;;12.03;8.93;;;;;;;3.31;70.34;100391.70;1689683;84;21395;-41
2020/12/16 08:07:43;;;;;;;12.28;9.40;;;;;;;3.35;70.35;100391.39;1668353;84;21569;-40
2020/12/16 08:10:11;;;;;;;12.98;9.20;;;;;;;3.38;70.25;100388.16;1726129;81;21167;-41
2020/12/16 08:12:42;;;;;;;13.50;9.55;;;;;;;3.35;70.35;100392.73;1748462;82;21174;-41
2020/12/16 08:15:17;;;;;;;12.85;9.48;;;;;;;3.32;70.43;100390.09;1725520;82;21094;-41
2020/12/16 08:17:47;;;;;;;14.20;9.80;;;;;;;3.30;70.60;100390.11;1725791;82;22108;-41
2020/12/16 08:20:24;;;;;;;13.70;8.53;;;;;;;3.28;70.65;100388.27;1731515;81;21377;-41
2020/12/16 08:22:58;;;;;;;11.75;9.40;;;;;;;3.23;70.86;100391.81;1737527;82;21039;-41
2020/12/16 08:25:27;;;;;;;13.50;9.63;;;;;;;3.30;70.70;100400.83;1735418;82;21514;-37
2020/12/16 08:27:56;;;;;;;13.28;9.15;;;;;;;3.35;70.69;100396.20;1735271;82;21574;-41
2020/12/16 08:30:27;;;;;;;13.05;9.75;;;;;;;3.34;70.68;100385.80;1738188;82;21316;-41
2020/12/16 08:33:16;;;;;;;14.35;10.50;;;;;;;3.31;70.76;100385.01;1734233;81;21625;-41
2020/12/16 08:36:04;;;;;;;14.87;10.75;;;;;;;3.25;70.89;100375.42;1731852;81;21641;-41
2020/12/16 08:38:36;;;;;;;16.42;11.60;;;;;;;3.19;70.95;100384.09;1731110;81;21181;-41
2020/12/16 08:41:07;;;;;;;14.93;10.65;;;;;;;3.13;71.17;100379.06;1723346;81;21170;-41
2020/12/16 08:43:37;;;;;;;14.38;10.70;;;;;;;3.11;71.33;100374.52;1728219;82;21210;-41
2020/12/16 08:46:17;;;;;;;15.55;10.58;;;;;;;3.14;71.16;100372.63;1737790;82;21182;-41
2020/12/16 08:49:00;;;;;;;13.95;10.98;;;;;;;3.14;71.11;100370.75;1726229;82;21233;-41
2020/12/16 08:51:42;;;;;;;16.00;11.85;;;;;;;3.06;71.36;100369.48;1742617;82;21175;-41
2020/12/16 08:54:17;;;;;;;15.93;11.83;;;;;;;3.04;71.67;100368.98;1741813;82;21187;-41
2020/12/16 08:56:59;;;;;;;16.87;12.65;;;;;;;3.03;71.45;100369.26;1740715;82;21267;-40
2020/12/16 08:59:30;;;;;;;17.25;12.33;;;;;;;2.94;71.65;100374.98;1713281;80;21173;-40
2020/12/16 09:02:07;;;;;;;15.48;11.80;;;;;;;2.89;71.88;100369.14;1717994;81;21162;-40
2020/12/16 09:04:37;;;;;;;15.60;12.03;;;;;;;2.93;71.90;100375.52;1718067;81;21138;-40
2020/12/16 09:07:09;;;;;;;;;;;;;;;2.91;71.75;100381.69;1715832;83;21213;-40
2020/12/16 09:09:51;;;;;;;13.20;9.85;;;;;;;2.80;71.68;100378.88;1701837;83;21202;-40
2020/12/16 09:12:21;;;;;;;14.47;11.05;;;;;;;2.61;71.93;100368.63;1713154;83;21134;-40
2020/12/16 09:14:59;;;;;;;12.98;10.40;;;;;;;2.53;72.26;100366.00;1699779;83;21190;-41
2020/12/16 09:17:32;;;;;;;14.53;9.63;;;;;;;2.49;72.52;100362.83;1683098;83;21181;-40
2020/12/16 09:20:01;;;;;;;12.88;10.40;;;;;;;2.48;72.44;100360.69;1704778;83;21560;-41
2020/12/16 09:22:30;;;;;;;14.58;10.80;;;;;;;2.56;72.56;100363.31;1693008;83;21612;-40
2020/12/16 09:25:01;;;;;;;15.63;10.40;;;;;;;2.50;72.87;100367.11;1716743;83;21154;-40
2020/12/16 09:27:30;;;;;;;14.30;10.85;;;;;;;2.47;73.14;100363.66;1709322;83;21719;-40
2020/12/16 09:29:58;;;;;;;13.78;10.35;;;;;;;2.46;73.25;100362.06;1675626;83;21173;-40
2020/12/16 09:32:26;;;;;;;11.45;8.63;;;;;;;2.45;73.32;100365.27;1716653;83;21182;-40
2020/12/16 09:34:55;;;;;;;11.15;8.93;;;;;;;2.52;73.26;100361.72;1703351;83;21438;-40
2020/12/16 09:37:32;;;;;;;13.00;9.10;;;;;;;2.61;72.80;100365.94;1711806;83;21181;-41
2020/12/16 09:40:10;;;;;;;13.00;9.30;;;;;;;2.65;72.81;100368.31;1710666;83;21169;-41
2020/12/16 09:42:39;;;;;;;9.73;7.70;;;;;;;2.66;72.61;100368.57;1672176;85;21176;-40
2020/12/16 09:45:18;;;;;;;10.77;8.10;;;;;;;2.60;72.30;100365.67;1713590;83;21115;-40
2020/12/16 09:47:48;;;;;;;11.03;8.50;;;;;;;2.52;72.25;100366.27;1719874;81;23570;-41
2020/12/16 09:50:28;;;;;;;8.98;7.40;;;;;;;2.42;72.51;100361.03;1711086;83;21169;-42
2020/12/16 09:53:04;;;;;;;9.88;7.58;;;;;;;2.40;72.78;100361.84;1712676;83;21182;-41
2020/12/16 09:55:39;;;;;;;9.20;7.47;;;;;;;2.45;72.71;100353.23;1710053;83;21632;-41
2020/12/16 09:58:11;;;;;;;9.05;6.97;;;;;;;2.47;72.89;100351.62;1708527;83;21155;-41
2020/12/16 10:00:43;;;;;;;10.85;7.50;;;;;;;2.48;73.05;100352.66;1727415;81;21376;-41
2020/12/16 10:03:20;;;;;;;8.58;6.90;;;;;;;2.48;73.13;100351.31;1735055;80;21214;-41
2020/12/16 10:05:44;;;;;;;9.28;6.87;;;;;;;2.46;72.95;100346.80;1733023;81;21236;-41
2020/12/16 10:08:17;;;;;;;8.67;6.97;;;;;;;2.47;72.90;100337.67;1739337;81;21501;-42
2020/12/16 10:10:45;;;;;;;9.98;7.65;;;;;;;2.54;72.96;100344.84;1737245;81;21221;-42
2020/12/16 10:13:15;;;;;;;10.80;8.15;;;;;;;2.52;73.15;100341.64;1728928;81;21225;-41
2020/12/16 10:15:45;;;;;;;12.88;8.00;;;;;;;2.50;73.23;100342.48;1727320;81;21189;-41
2020/12/16 10:18:13;;;;;;;7.78;5.90;;;;;;;2.47;73.32;100340.91;1730300;81;21189;-41
2020/12/16 10:20:44;;;;;;;7.42;5.78;;;;;;;2.44;73.23;100333.43;1741206;81;21174;-40
2020/12/16 10:23:12;;;;;;;7.40;6.17;;;;;;;2.46;73.20;100338.77;1714254;81;21166;-41
2020/12/16 10:25:41;;;;;;;7.53;6.22;;;;;;;2.54;73.07;100345.38;1735581;80;21205;-42
2020/12/16 10:28:10;;;;;;;6.83;6.12;;;;;;;2.58;73.01;100338.37;1737836;81;21169;-42
2020/12/16 10:30:39;;;;;;;7.58;6.03;;;;;;;2.58;72.89;100332.48;1738992;81;21134;-41
2020/12/16 10:33:09;;;;;;;;;;;;;;;2.59;72.83;100334.63;1738991;81;21114;-42
2020/12/16 10:35:37;;;;;;;7.28;6.05;;;;;;;2.59;72.67;100327.94;1735471;81;20289;-41
2020/12/16 10:38:05;;;;;;;9.18;6.53;;;;;;;2.45;72.87;100328.34;1706454;83;21596;-42
2020/12/16 10:40:34;;;;;;;7.35;5.58;;;;;;;2.44;72.94;100324.06;1710187;82;21477;-42
2020/12/16 10:43:04;;;;;;;7.95;6.37;;;;;;;2.55;72.87;100321.55;1692737;84;21165;-42
2020/12/16 10:45:32;;;;;;;8.93;6.97;;;;;;;2.59;72.65;100320.70;1673529;84;21197;-42
2020/12/16 10:48:00;;;;;;;9.68;7.03;;;;;;;2.55;72.73;100322.36;1704788;83;21146;-39
2020/12/16 10:50:33;;;;;;;9.00;7.00;;;;;;;2.49;72.36;100321.34;1696455;84;21926;-38
2020/12/16 10:53:02;;;;;;;7.90;6.80;;;;;;;2.39;72.40;100323.57;1699674;84;21753;-39
2020/12/16 10:55:30;;;;;;;8.60;6.78;;;;;;;2.29;72.71;100313.49;1695014;84;21763;-39
2020/12/16 10:57:58;;;;;;;8.33;6.45;;;;;;;2.27;72.75;100329.05;1697623;84;21195;-42
2020/12/16 11:00:29;;;;;;;9.18;7.25;;;;;;;2.26;72.85;100314.06;1683572;83;21162;-43
2020/12/16 11:02:57;;;;;;;9.63;7.70;;;;;;;2.19;73.10;100306.35;1684766;84;21346;-43
2020/12/16 11:05:25;;;;;;;13.68;10.75;;;;;;;2.15;73.34;100305.33;1730121;82;21048;-42
2020/12/16 11:07:53;;;;;;;12.93;10.68;;;;;;;2.12;73.55;100299.20;1728875;82;21159;-43
2020/12/16 11:10:22;;;;;;;12.98;10.43;;;;;;;2.09;73.63;100296.54;1727683;82;21210;-43
2020/12/16 11:14:09;;;;;;;13.18;10.80;;;;;;;2.21;73.53;100300.73;1836814;77;23339;-42
2020/12/16 11:16:37;;;;;;;14.53;11.45;;;;;;;2.14;73.62;100299.17;1784414;78;21545;-42
2020/12/16 11:19:06;;;;;;;14.70;12.00;;;;;;;2.15;73.80;100308.00;1793692;78;21377;-42
2020/12/16 11:21:40;;;;;;;15.65;12.07;;;;;;;2.15;73.88;100295.96;1766172;80;21048;-42
2020/12/16 11:24:11;;;;;;;17.15;13.45;;;;;;;2.16;73.95;100298.37;1745718;82;22093;-41
2020/12/16 11:26:40;;;;;;;19.50;13.80;;;;;;;2.13;73.98;100295.46;1746136;80;21331;-41
2020/12/16 11:29:10;;;;;;;18.32;14.53;;;;;;;2.20;73.95;100302.61;1740610;82;20945;-42
2020/12/16 11:31:47;;;;;;;18.25;15.15;;;;;;;2.26;73.69;100302.83;1739659;82;22175;-42
2020/12/16 11:34:18;;;;;;;23.52;15.83;;;;;;;2.25;73.81;100304.44;1735882;81;21000;-41
2020/12/16 11:36:48;;;;;;;20.75;15.20;;;;;;;2.17;73.96;100299.16;1742390;81;21027;-42
2020/12/16 11:39:17;;;;;;;23.85;18.27;;;;;;;2.12;74.27;100298.67;1736857;81;21162;-41
2020/12/16 11:41:47;;;;;;;24.45;17.80;;;;;;;2.08;74.29;100296.84;1742412;81;21174;-42
2020/12/16 11:44:19;;;;;;;22.60;17.32;;;;;;;2.11;74.36;100298.41;1746828;80;21430;-42
2020/12/16 11:46:50;;;;;;;23.92;17.60;;;;;;;2.19;74.30;100301.80;1749304;82;21008;-42